Zakirovskiy Airport

Jump to: basic info | weather | comments

Related pages: nearby airports | nearby navaids

Basic information (top)

Location: lon 43.448002, lat 77.049599, elev 2,038 ft / 621 m msl
Status: small_airport

Weather (top)

Current conditions for Almaty Airport 6nm (11km) S (rec'd 2015/02/28 01:30Z):

UAAA 280130Z 17002MPS 1800 R05L/P2000U R05R/1300VP2000U BR FU SCT100 M06/M08 Q1031 R88/65D NOSIG

Airport forecast for Almaty Airport 6nm (11km) S (rec'd 2015/02/27 00:18Z):

TAF TAF UAAA 272300Z 2800/2824 16005MPS 2000 BR FU BKN010 BKN100 TX02/2808Z TNM06/2801Z 
      TEMPO 2800/2806 0300 FZFG VV002 
      BECMG 2806/2807 03005MPS 3000 
      TEMPO 2811/2824 0400 FZFG

Latest comments (top)

No comments yet for Zakirovskiy Airport

More... (top)

See also NOTAMs and nearby airports and navaids, or visit the Zakirovskiy Airport page at the main OurAirports website..